Pagrindinis puslapis
METAR-TAF:

METAR-TAF

Oro uostai :

Bardufoss, Norvegija

platuma: 69-04N, ilguma: 018-32E, Aukštis: 7 m

Dabartinis oras

Ataskaita buvo paskelbta 41 minutes, ne 09:50 UTC
Vėjas 1 kt nuo kintamojo kryptimis
Temperatūra 5°C
Drėgmė 70%
Slėgis 1003 hPa
Matomumas 10 km arba daugiau
Išsisklaidę debesys ne aukštis 5000 ft
Su prošvaistėmis ne aukštis 25000 ft

METAR: ENDU 020950Z VRB01KT 9999 SCT050 BKN250 05/00 Q1003 NOSIG RMK WIND 1100FT 16004KT WIND 2200FT 21003KT

Laikas: 12:31 (10:31 UTC)

Prognozė

Prognozė galioja nuo 02 metu 06 UTC su 03 metu 06 UTC
Vėjas 3 kt nuo kintamojo kryptimis
Matomumas 10 km arba daugiau
Mažai debesys ne aukštis 4000 ft
Tikimybė 30% :
Laikinai
nuo 02 metu 06 UTC su 02 metu 08 UTC
Matomumas: 1200 m
Dalies įtraukti į rūko
Tikimybė 30% :
Laikinai
nuo 02 metu 21 UTC su 03 metu 06 UTC
Matomumas: 1200 m
Dalies įtraukti į rūko

TAF: ENDU 0206/0306 VRB03KT 9999 FEW040 PROB30 TEMPO 0206/0208 1200 PRFG PROB30 TEMPO 0221/0306 1200 PRFG

Orai ataskaitas ir orų prognozės (METAR, TAF).

turimą stotys yra geltonos ir raudonos taškus žemėlapyje.

Perkelti pele per norėdami pamatyti stoties vardą.

Tada spustelėkite, norėdami matyti oro stebėjimo ir prognozės.

Norėdami pakeisti žemėlapį: spustelėkite ant žalios mygtukų su juodo kryžiaus žemyn,; žalią mygtuką su brūkšneliu, jei norite nutolinti; arba žalių rodyklių gretimoms žemėlapius.


METAR-TAF: